Main page
METAR-TAF:

METAR-TAF

Airports :

Niamtougou, Togo

Niamtougou International Airport

latitude: 09-46N, longitude: 001-06E, elevation: 342 m

Current weather observation

The report was made 1 hour and 24 minutes ago, at 16:00 UTC
Wind 3 kt from the North/Northwest
Temperature 26°C
Humidity 70%
Pressure 1014 hPa
Visibility 10 km or more
Few clouds at a height of 600 ft

METAR: DXNG 261600Z 34003KT 9999 FEW006 26/20 Q1014 NOSIG

Time: 17:24 (17:24 UTC)

Forecast

The report was made 5 hours and 54 minutes ago, at 11:30 UTC
Forecast valid from 26 at 12 UTC to 27 at 12 UTC
Wind 5 kt from variable directions
Visibility 10 km or more
Scattered clouds at a height of 1000 ft
Probability 40% :
Temporary
from 26 at 14 UTC to 26 at 22 UTC
Visibility: 4000 m
Broken clouds at a height of 800 ft
Few clouds at a height of 1600 ft, Cumulonimbus.
thunderstorm, rain

TAF: DXNG 261130Z 2612/2712 VRB05KT 9999 SCT010 PROB40 TEMPO 2614/2622 4000 TSRA BKN008 FEW016CB

Weather observations and forecasts of more than 4000 airports (METAR and TAF reports).

The available stations are represented by yellow and red dots on the map.

Hover mouse over dot to see the name of the station.

Then click to see weather observations and forecasts.

To change the map : click on the green buttons with a black cross to zoom in, on the green button with a dash to zoom out, or on the green arrows for adjacent maps.


METAR-TAF: